createdAt,value
2022-08-17T00:00:43.930Z,79.97
2022-08-17T00:01:26.296Z,79.87
2022-08-17T00:02:26.985Z,79.71
2022-08-17T00:03:24.697Z,79.81
2022-08-17T00:04:24.695Z,79.61
2022-08-17T00:05:24.687Z,80.01
2022-08-17T00:06:24.697Z,79.71
2022-08-17T00:07:25.187Z,79.91
2022-08-17T00:08:24.654Z,79.91
2022-08-17T00:09:24.657Z,80.18
2022-08-17T00:10:24.651Z,80.01
2022-08-17T00:11:24.655Z,80.11
2022-08-17T00:12:42.984Z,79.91
2022-08-17T00:13:26.308Z,80.31
2022-08-17T00:14:25.244Z,80.21
2022-08-17T00:15:24.605Z,80.31
2022-08-17T00:16:55.879Z,80.62
2022-08-17T00:17:25.597Z,80.72
2022-08-17T00:19:01.268Z,80.51
2022-08-17T00:19:25.576Z,80.72
2022-08-17T00:20:30.538Z,80.41
2022-08-17T00:21:25.605Z,80.72
2022-08-17T00:22:30.857Z,80.92
2022-08-17T00:23:25.539Z,80.76
2022-08-17T00:24:24.530Z,80.65
2022-08-17T00:25:25.237Z,80.21
2022-08-17T00:26:43.529Z,80.92
2022-08-17T00:27:25.502Z,80.35
2022-08-17T00:28:24.499Z,80.55
2022-08-17T00:29:24.489Z,80.51
2022-08-17T00:30:24.501Z,80.51
2022-08-17T00:33:14.003Z,80.76
2022-08-17T00:33:25.755Z,81.05
2022-08-17T00:34:24.442Z,81.30
2022-08-17T00:35:24.428Z,80.99
2022-08-17T00:36:24.427Z,81.30
2022-08-17T00:37:25.517Z,81.40
2022-08-17T00:38:25.501Z,81.26
2022-08-17T00:39:25.554Z,81.16
2022-08-17T00:40:25.479Z,81.30
2022-08-17T00:41:25.495Z,81.36
2022-08-17T00:42:30.804Z,81.30
2022-08-17T00:43:27.452Z,81.60
2022-08-17T00:44:25.449Z,81.60
2022-08-17T00:45:25.436Z,81.40
2022-08-17T00:46:25.444Z,81.50
2022-08-17T00:47:25.429Z,81.60
2022-08-17T00:48:30.203Z,81.70
2022-08-17T00:49:26.406Z,81.50
2022-08-17T00:50:25.409Z,81.50
2022-08-17T00:51:25.405Z,81.60
2022-08-17T00:52:25.381Z,81.60
2022-08-17T00:53:26.314Z,81.60
2022-08-17T00:54:25.359Z,81.80
2022-08-17T00:55:25.360Z,82.04
2022-08-17T00:56:25.369Z,81.94
2022-08-17T00:57:25.341Z,82.24
2022-08-17T00:58:30.394Z,82.45
2022-08-17T00:59:26.893Z,82.24
2022-08-17T01:00:25.326Z,82.65
2022-08-17T01:01:25.370Z,82.35
2022-08-17T01:02:25.298Z,82.04
2022-08-17T01:03:25.296Z,82.65
2022-08-17T01:04:25.279Z,82.55
2022-08-17T01:05:25.550Z,82.24
2022-08-17T01:06:25.268Z,82.45
2022-08-17T01:07:25.257Z,82.35
2022-08-17T01:08:25.249Z,82.35
2022-08-17T01:09:25.241Z,82.14
2022-08-17T01:11:00.145Z,82.45
2022-08-17T01:11:26.273Z,82.35
2022-08-17T01:12:25.220Z,82.04
2022-08-17T01:13:25.215Z,83.05
2022-08-17T01:14:25.819Z,83.19
2022-08-17T01:15:26.839Z,83.19
2022-08-17T01:16:25.194Z,82.59
2022-08-17T01:17:25.200Z,82.79
2022-08-17T01:18:25.182Z,82.79
2022-08-17T01:19:25.163Z,82.59
2022-08-17T01:20:25.183Z,83.50
2022-08-17T01:21:25.166Z,83.40
2022-08-17T01:22:25.140Z,82.99
2022-08-17T01:23:25.139Z,83.19
2022-08-17T01:24:25.120Z,84.00
2022-08-17T01:25:25.107Z,84.11
2022-08-17T01:26:25.906Z,83.09
2022-08-17T01:27:25.112Z,83.80
2022-08-17T01:28:33.630Z,83.09
2022-08-17T01:29:26.079Z,83.19
2022-08-17T01:30:58.066Z,83.60
2022-08-17T01:31:26.090Z,83.50
2022-08-17T01:32:25.055Z,83.40
2022-08-17T01:33:25.051Z,83.40
2022-08-17T01:34:25.038Z,83.40
2022-08-17T01:35:26.039Z,83.50
2022-08-17T01:36:25.017Z,83.50
2022-08-17T01:37:25.088Z,83.60
2022-08-17T01:38:27.175Z,83.44
2022-08-17T01:39:25.014Z,83.54
2022-08-17T01:40:24.988Z,83.44
2022-08-17T01:41:25.004Z,83.74
2022-08-17T01:42:24.983Z,84.55
2022-08-17T01:43:24.967Z,84.45
2022-08-17T01:44:24.968Z,84.34
2022-08-17T01:45:24.996Z,84.61
2022-08-17T01:46:24.938Z,84.55
2022-08-17T01:47:25.915Z,84.55
2022-08-17T01:48:24.923Z,84.14
2022-08-17T01:49:24.918Z,84.55
2022-08-17T01:50:24.904Z,84.34
2022-08-17T01:51:24.919Z,84.65
2022-08-17T01:52:24.892Z,84.34
2022-08-17T01:53:25.836Z,84.04
2022-08-17T01:54:24.876Z,83.90
2022-08-17T01:55:27.422Z,83.94
2022-08-17T01:56:25.865Z,84.25
2022-08-17T01:57:24.857Z,84.45
2022-08-17T01:58:24.834Z,84.04
2022-08-17T01:59:24.827Z,84.14
2022-08-17T02:00:24.823Z,84.25
2022-08-17T02:01:24.896Z,84.14
2022-08-17T02:02:31.245Z,84.25
2022-08-17T02:03:25.804Z,83.94
2022-08-17T02:04:25.415Z,84.65
2022-08-17T02:05:24.792Z,84.55
2022-08-17T02:06:27.525Z,84.65
2022-08-17T02:07:26.961Z,84.48
2022-08-17T02:08:38.934Z,84.65
2022-08-17T02:09:29.526Z,84.85
2022-08-17T02:10:24.761Z,84.75
2022-08-17T02:11:25.756Z,84.59
2022-08-17T02:12:39.444Z,84.79
2022-08-17T02:13:25.737Z,84.45
2022-08-17T02:14:24.719Z,84.59
2022-08-17T02:15:24.708Z,84.39
2022-08-17T02:16:24.698Z,84.48
2022-08-17T02:17:24.693Z,84.48
2022-08-17T02:18:24.687Z,84.55
2022-08-17T02:19:24.681Z,84.48
2022-08-17T02:20:41.402Z,84.89
2022-08-17T02:21:25.656Z,84.48
2022-08-17T02:22:24.646Z,84.75
2022-08-17T02:23:24.640Z,84.25
2022-08-17T02:24:58.944Z,84.79
2022-08-17T02:25:25.648Z,84.45
2022-08-17T02:26:25.940Z,84.39
2022-08-17T02:27:24.601Z,84.89
2022-08-17T02:28:24.601Z,84.45
2022-08-17T02:29:24.588Z,84.89
2022-08-17T02:31:00.835Z,84.39
2022-08-17T02:31:25.588Z,84.55
2022-08-17T02:32:28.108Z,84.65
2022-08-17T02:33:24.557Z,83.94
2022-08-17T02:34:25.550Z,85.16
2022-08-17T02:35:24.543Z,85.56
2022-08-17T02:36:27.403Z,86.77
2022-08-17T02:37:25.538Z,86.57
2022-08-17T02:38:24.516Z,87.08
2022-08-17T02:39:24.551Z,87.08
2022-08-17T02:40:28.619Z,87.38
2022-08-17T02:41:25.521Z,87.44
2022-08-17T02:42:24.485Z,87.08
2022-08-17T02:43:24.506Z,86.98
2022-08-17T02:44:39.494Z,86.43
2022-08-17T02:45:25.465Z,86.73
2022-08-17T02:46:24.484Z,86.73
2022-08-17T02:47:24.436Z,86.83
2022-08-17T02:48:31.186Z,86.22
2022-08-17T02:49:25.435Z,86.13
2022-08-17T02:50:24.420Z,86.27
2022-08-17T02:51:24.448Z,86.27
2022-08-17T02:52:42.927Z,86.16
2022-08-17T02:53:25.686Z,86.77
2022-08-17T02:54:41.303Z,86.77
2022-08-17T02:55:25.374Z,86.67
2022-08-17T02:56:24.382Z,86.57
2022-08-17T02:57:24.362Z,86.77
2022-08-17T02:58:34.498Z,86.67
2022-08-17T02:59:25.341Z,86.87
2022-08-17T03:00:24.368Z,86.77
2022-08-17T03:01:24.373Z,86.77
2022-08-17T03:02:24.318Z,86.67
2022-08-17T03:03:24.317Z,86.77
2022-08-17T03:04:24.303Z,86.98
2022-08-17T03:05:24.854Z,87.02
2022-08-17T03:06:24.308Z,86.98
2022-08-17T03:07:24.272Z,86.67
2022-08-17T03:08:24.278Z,86.61
2022-08-17T03:09:24.289Z,86.77
2022-08-17T03:10:24.252Z,86.98
2022-08-17T03:11:24.244Z,86.57
2022-08-17T03:12:24.252Z,86.82
2022-08-17T03:13:24.229Z,86.67
2022-08-17T03:14:26.382Z,86.67
2022-08-17T03:15:24.219Z,86.77
2022-08-17T03:16:24.206Z,86.87
2022-08-17T03:17:24.205Z,86.77
2022-08-17T03:18:26.067Z,86.71
2022-08-17T03:19:24.188Z,86.82
2022-08-17T03:20:24.181Z,86.91
2022-08-17T03:21:24.178Z,87.56
2022-08-17T03:22:37.230Z,87.82
2022-08-17T03:23:25.424Z,87.97
2022-08-17T03:24:28.619Z,87.97
2022-08-17T03:25:24.129Z,87.87
2022-08-17T03:26:24.119Z,88.07
2022-08-17T03:27:25.103Z,87.66
2022-08-17T03:28:24.113Z,86.85
2022-08-17T03:29:24.089Z,86.15
2022-08-17T03:30:24.086Z,85.94
2022-08-17T03:31:24.097Z,86.96
2022-08-17T03:32:24.103Z,86.85
2022-08-17T03:33:24.064Z,87.05
2022-08-17T03:34:24.866Z,87.16
2022-08-17T03:35:24.044Z,87.51
2022-08-17T03:36:24.870Z,88.48
2022-08-17T03:37:24.026Z,88.27
2022-08-17T03:38:24.032Z,88.48
2022-08-17T03:39:24.112Z,88.37
2022-08-17T03:40:55.403Z,88.37
2022-08-17T03:41:25.027Z,88.57
2022-08-17T03:42:32.435Z,88.07
2022-08-17T03:43:24.984Z,87.05
2022-08-17T03:44:23.994Z,86.35
2022-08-17T03:45:23.975Z,85.94
2022-08-17T03:46:33.877Z,85.84
2022-08-17T03:47:24.973Z,85.88
2022-08-17T03:48:23.944Z,85.88
2022-08-17T03:49:23.937Z,86.08
2022-08-17T03:50:23.942Z,86.39
2022-08-17T03:51:24.875Z,85.99
2022-08-17T03:52:25.915Z,86.08
2022-08-17T03:53:23.905Z,86.19
2022-08-17T03:54:23.912Z,85.99
2022-08-17T03:55:32.908Z,85.99
2022-08-17T03:56:24.920Z,86.29
2022-08-17T03:57:23.866Z,86.39
2022-08-17T03:58:23.878Z,87.20
2022-08-17T03:59:23.861Z,87.00
2022-08-17T04:00:23.848Z,87.00
2022-08-17T04:01:23.880Z,87.10
2022-08-17T04:02:24.477Z,87.00
2022-08-17T04:03:23.826Z,87.00
2022-08-17T04:04:27.734Z,86.90
2022-08-17T04:05:23.818Z,86.83
2022-08-17T04:06:23.810Z,86.73
2022-08-17T04:07:23.812Z,86.83
2022-08-17T04:08:23.791Z,86.79
2022-08-17T04:09:23.972Z,86.79
2022-08-17T04:10:26.477Z,86.90
2022-08-17T04:11:24.757Z,86.79
2022-08-17T04:12:23.746Z,86.90
2022-08-17T04:13:24.257Z,87.10
2022-08-17T04:14:23.744Z,87.81
2022-08-17T04:15:23.746Z,87.77
2022-08-17T04:16:23.736Z,88.42
2022-08-17T04:17:23.711Z,88.57
2022-08-17T04:18:24.384Z,88.48
2022-08-17T04:19:24.464Z,88.92
2022-08-17T04:20:23.698Z,88.68
2022-08-17T04:21:23.696Z,88.17
2022-08-17T04:22:31.377Z,88.48
2022-08-17T04:23:24.659Z,88.07
2022-08-17T04:24:23.683Z,87.56
2022-08-17T04:25:23.719Z,87.66
2022-08-17T04:26:53.761Z,87.36
2022-08-17T04:27:24.620Z,87.12
2022-08-17T04:28:23.617Z,86.96
2022-08-17T04:29:23.617Z,86.61
2022-08-17T04:30:24.003Z,85.39
2022-08-17T04:31:23.604Z,84.93
2022-08-17T04:33:02.212Z,84.79
2022-08-17T04:33:25.571Z,84.63
2022-08-17T04:34:23.579Z,84.33
2022-08-17T04:35:23.561Z,84.39
2022-08-17T04:36:23.583Z,83.98
2022-08-17T04:37:23.548Z,84.02
2022-08-17T04:38:23.536Z,84.39
2022-08-17T04:39:23.536Z,85.54
2022-08-17T04:40:26.044Z,85.64
2022-08-17T04:41:23.525Z,86.96
2022-08-17T04:42:23.499Z,87.16
2022-08-17T04:43:23.504Z,86.65
2022-08-17T04:44:27.211Z,86.96
2022-08-17T04:45:24.489Z,86.76
2022-08-17T04:46:23.465Z,87.05
2022-08-17T04:47:23.456Z,85.84
2022-08-17T04:48:23.449Z,85.84
2022-08-17T04:49:24.437Z,85.24
2022-08-17T04:50:23.434Z,85.30
2022-08-17T04:51:23.447Z,84.69
2022-08-17T04:52:32.331Z,85.10
2022-08-17T04:53:24.417Z,84.45
2022-08-17T04:54:23.410Z,84.39
2022-08-17T04:55:23.397Z,84.25
2022-08-17T04:56:23.439Z,83.94
2022-08-17T04:57:23.378Z,83.54
2022-08-17T04:58:23.375Z,83.70
2022-08-17T04:59:23.360Z,82.75
2022-08-17T05:00:23.354Z,82.81
2022-08-17T05:01:24.556Z,81.36
2022-08-17T05:02:23.336Z,80.62
2022-08-17T05:03:23.339Z,79.47
2022-08-17T05:04:34.859Z,78.02
2022-08-17T05:05:24.314Z,78.02
2022-08-17T05:06:23.330Z,78.59
2022-08-17T05:07:25.351Z,77.44
2022-08-17T05:08:24.290Z,76.30
2022-08-17T05:09:23.278Z,75.29
2022-08-17T05:10:23.309Z,75.26
2022-08-17T05:11:24.290Z,75.32
2022-08-17T05:12:23.292Z,74.72
2022-08-17T05:13:23.266Z,74.18
2022-08-17T05:14:32.341Z,73.88
2022-08-17T05:15:24.230Z,73.24
2022-08-17T05:16:23.228Z,72.30
2022-08-17T05:17:23.230Z,71.70
2022-08-17T05:18:24.452Z,71.47
2022-08-17T05:19:23.261Z,70.43
2022-08-17T05:20:23.188Z,69.89
2022-08-17T05:21:23.189Z,69.89
2022-08-17T05:22:23.199Z,69.16
2022-08-17T05:23:23.172Z,69.16
2022-08-17T05:24:38.943Z,68.92
2022-08-17T05:25:25.773Z,68.39
2022-08-17T05:26:26.898Z,68.09
2022-08-17T05:27:23.486Z,67.22
2022-08-17T05:28:27.460Z,65.62
2022-08-17T05:29:23.906Z,65.02
2022-08-17T05:30:24.117Z,65.99
2022-08-17T05:31:23.100Z,65.06
2022-08-17T05:32:39.406Z,64.66
2022-08-17T05:33:24.078Z,64.39
2022-08-17T05:34:23.075Z,64.49
2022-08-17T05:35:23.071Z,64.39
2022-08-17T05:36:41.933Z,64.19
2022-08-17T05:37:24.069Z,64.46
2022-08-17T05:38:23.052Z,64.66
2022-08-17T05:39:23.906Z,64.36
2022-08-17T05:40:23.045Z,63.53
2022-08-17T05:41:23.045Z,63.33
2022-08-17T05:42:23.046Z,62.60
2022-08-17T05:43:23.022Z,62.04
2022-08-17T05:44:23.008Z,60.95
2022-08-17T05:45:54.678Z,60.49
2022-08-17T05:46:23.986Z,59.66
2022-08-17T05:47:22.993Z,58.47
2022-08-17T05:48:39.208Z,58.74
2022-08-17T05:49:23.985Z,58.41
2022-08-17T05:50:26.048Z,57.82
2022-08-17T05:51:23.952Z,58.64
2022-08-17T05:52:22.947Z,59.23
2022-08-17T05:53:22.935Z,58.84
2022-08-17T05:54:22.939Z,58.22
2022-08-17T05:55:22.925Z,58.41
2022-08-17T05:56:29.840Z,58.39
2022-08-17T05:57:23.892Z,57.59
2022-08-17T05:58:22.885Z,56.47
2022-08-17T05:59:22.894Z,56.47
2022-08-17T06:00:30.166Z,56.14
2022-08-17T06:01:23.965Z,55.32
2022-08-17T06:02:22.852Z,55.62
2022-08-17T06:03:22.843Z,55.40
2022-08-17T06:04:22.838Z,55.12
2022-08-17T06:05:22.866Z,55.12
2022-08-17T06:06:22.829Z,55.02
2022-08-17T06:07:22.818Z,54.40
2022-08-17T06:08:22.802Z,54.47
2022-08-17T06:09:27.724Z,53.78
2022-08-17T06:10:24.794Z,54.47
2022-08-17T06:11:22.881Z,54.68
2022-08-17T06:12:22.782Z,54.28
2022-08-17T06:13:23.421Z,53.96
2022-08-17T06:14:22.754Z,53.08
2022-08-17T06:15:22.755Z,52.98
2022-08-17T06:16:33.521Z,53.16
2022-08-17T06:17:23.817Z,53.98
2022-08-17T06:18:22.727Z,54.38
2022-08-17T06:19:22.717Z,54.53
2022-08-17T06:20:22.710Z,55.77
2022-08-17T06:21:23.744Z,55.27
2022-08-17T06:22:23.708Z,56.20
2022-08-17T06:23:22.689Z,55.57
2022-08-17T06:24:22.675Z,55.38
2022-08-17T06:25:22.677Z,56.07
2022-08-17T06:26:25.915Z,56.89
2022-08-17T06:27:23.656Z,56.07
2022-08-17T06:28:22.646Z,55.44
2022-08-17T06:29:22.652Z,55.12
2022-08-17T06:30:22.631Z,54.50
2022-08-17T06:31:22.649Z,53.98
2022-08-17T06:32:22.625Z,53.06
2022-08-17T06:33:22.621Z,53.26
2022-08-17T06:34:22.640Z,53.85
2022-08-17T06:35:22.604Z,53.98
2022-08-17T06:36:22.612Z,52.96
2022-08-17T06:37:22.575Z,53.56
2022-08-17T06:38:37.796Z,53.96
2022-08-17T06:39:23.567Z,53.11
2022-08-17T06:40:22.556Z,53.20
2022-08-17T06:41:22.599Z,52.46
2022-08-17T06:42:59.889Z,50.46
2022-08-17T06:43:23.557Z,50.76
2022-08-17T06:44:42.207Z,50.66
2022-08-17T06:45:23.529Z,50.13
2022-08-17T06:46:22.506Z,49.54
2022-08-17T06:47:28.445Z,50.01
2022-08-17T06:48:23.499Z,50.04
2022-08-17T06:49:22.509Z,50.36
2022-08-17T06:50:22.478Z,50.48
2022-08-17T06:51:22.508Z,50.76
2022-08-17T06:52:43.419Z,50.43
2022-08-17T06:53:23.453Z,49.94
2022-08-17T06:54:22.452Z,49.52
2022-08-17T06:55:22.441Z,49.49
2022-08-17T06:56:22.447Z,50.29
2022-08-17T06:57:22.426Z,49.69
2022-08-17T06:58:22.419Z,48.88
2022-08-17T06:59:22.426Z,49.49
2022-08-17T07:00:22.416Z,49.60
2022-08-17T07:01:22.421Z,48.80
2022-08-17T07:02:29.087Z,49.99
2022-08-17T07:03:23.384Z,50.21
2022-08-17T07:04:22.390Z,50.12
2022-08-17T07:05:22.381Z,50.12
2022-08-17T07:06:22.357Z,49.72
2022-08-17T07:07:22.363Z,49.52
2022-08-17T07:08:26.401Z,49.49
2022-08-17T07:09:23.348Z,50.12
2022-08-17T07:10:22.334Z,50.41
2022-08-17T07:11:22.327Z,50.19
2022-08-17T07:12:22.309Z,48.78
2022-08-17T07:13:22.314Z,49.27
2022-08-17T07:14:22.300Z,49.89
2022-08-17T07:15:22.285Z,49.89
2022-08-17T07:16:22.279Z,49.40
2022-08-17T07:17:22.270Z,48.80
2022-08-17T07:18:23.262Z,49.79
2022-08-17T07:19:22.259Z,49.89
2022-08-17T07:20:22.262Z,49.89
2022-08-17T07:21:26.207Z,49.94
2022-08-17T07:22:23.295Z,50.43
2022-08-17T07:23:22.221Z,50.63
2022-08-17T07:24:26.106Z,50.73
2022-08-17T07:25:23.202Z,50.76
2022-08-17T07:26:22.212Z,50.73
2022-08-17T07:27:22.194Z,50.61
2022-08-17T07:28:22.186Z,49.69
2022-08-17T07:29:22.181Z,49.99
2022-08-17T07:30:22.188Z,48.78
2022-08-17T07:31:22.172Z,49.18
2022-08-17T07:32:22.167Z,49.69
2022-08-17T07:33:22.147Z,48.78
2022-08-17T07:34:22.140Z,49.08
2022-08-17T07:35:22.155Z,48.56
2022-08-17T07:36:25.416Z,48.56
2022-08-17T07:37:23.118Z,47.97
2022-08-17T07:38:24.661Z,48.27
2022-08-17T07:39:22.108Z,47.67
2022-08-17T07:40:22.171Z,47.75
2022-08-17T07:41:22.088Z,48.04
2022-08-17T07:42:22.093Z,47.57
2022-08-17T07:43:23.614Z,48.34
2022-08-17T07:44:22.064Z,47.55
2022-08-17T07:45:22.061Z,47.43
2022-08-17T07:46:22.056Z,46.94
2022-08-17T07:47:22.062Z,46.94
2022-08-17T07:48:22.041Z,47.33
2022-08-17T07:49:22.017Z,47.43
2022-08-17T07:50:25.788Z,47.94
2022-08-17T07:51:23.030Z,48.63
2022-08-17T07:52:48.211Z,48.12
2022-08-17T07:53:22.991Z,47.72
2022-08-17T07:54:21.987Z,47.33
2022-08-17T07:55:21.990Z,47.60
2022-08-17T07:56:21.969Z,47.19
2022-08-17T07:57:24.359Z,47.09
2022-08-17T07:58:22.960Z,46.28
2022-08-17T07:59:23.693Z,46.79
2022-08-17T08:00:23.809Z,46.79
2022-08-17T08:01:22.993Z,46.99
2022-08-17T08:02:22.053Z,46.89
2022-08-17T08:03:22.107Z,47.43
2022-08-17T08:04:43.240Z,47.87
2022-08-17T08:05:30.749Z,48.66
2022-08-17T08:06:22.897Z,48.66
2022-08-17T08:07:21.875Z,48.24
2022-08-17T08:08:22.576Z,47.43
2022-08-17T08:09:21.867Z,47.50
2022-08-17T08:10:21.918Z,47.11
2022-08-17T08:11:21.853Z,46.81
2022-08-17T08:12:22.554Z,46.77
2022-08-17T08:13:21.849Z,46.18
2022-08-17T08:14:21.831Z,46.15
2022-08-17T08:15:22.821Z,46.25
2022-08-17T08:16:21.815Z,45.84
2022-08-17T08:17:22.555Z,44.93
2022-08-17T08:18:54.423Z,45.30
2022-08-17T08:19:22.800Z,45.09
2022-08-17T08:20:51.213Z,44.98
2022-08-17T08:21:22.816Z,43.71
2022-08-17T08:22:21.791Z,43.90
2022-08-17T08:23:21.766Z,45.01
2022-08-17T08:24:21.758Z,44.83
2022-08-17T08:25:21.765Z,46.25
2022-08-17T08:26:21.748Z,46.08
2022-08-17T08:27:21.729Z,46.47
2022-08-17T08:28:21.715Z,46.18
2022-08-17T08:29:21.724Z,46.53
2022-08-17T08:30:21.733Z,45.25
2022-08-17T08:31:21.690Z,44.83
2022-08-17T08:32:21.775Z,45.09
2022-08-17T08:33:21.677Z,43.71
2022-08-17T08:34:59.086Z,43.41
2022-08-17T08:35:22.701Z,43.00
2022-08-17T08:37:14.670Z,43.69
2022-08-17T08:37:32.644Z,43.79
2022-08-17T08:38:23.639Z,43.18
2022-08-17T08:39:21.637Z,42.98
2022-08-17T08:40:21.629Z,42.76
2022-08-17T08:41:21.622Z,42.66
2022-08-17T08:42:21.629Z,42.18
2022-08-17T08:43:21.597Z,42.35
2022-08-17T08:44:21.606Z,42.37
2022-08-17T08:45:22.625Z,41.98
2022-08-17T08:46:21.583Z,42.98
2022-08-17T08:47:21.570Z,43.29
2022-08-17T08:48:45.874Z,43.27
2022-08-17T08:49:38.998Z,43.37
2022-08-17T08:50:37.154Z,42.79
2022-08-17T08:51:22.552Z,42.76
2022-08-17T08:52:21.529Z,42.47
2022-08-17T08:53:21.545Z,43.05
2022-08-17T08:54:26.580Z,42.47
2022-08-17T08:55:22.525Z,41.98
2022-08-17T08:56:21.525Z,42.74
2022-08-17T08:57:26.709Z,41.47
2022-08-17T08:58:32.068Z,42.45
2022-08-17T08:59:22.499Z,41.66
2022-08-17T09:00:21.479Z,41.35
2022-08-17T09:01:21.495Z,41.13
2022-08-17T09:02:21.500Z,41.35
2022-08-17T09:03:31.567Z,41.35
2022-08-17T09:04:25.448Z,41.25
2022-08-17T09:05:22.454Z,40.55
2022-08-17T09:06:32.469Z,41.15
2022-08-17T09:07:22.424Z,40.64
2022-08-17T09:08:21.438Z,40.55
2022-08-17T09:09:21.466Z,40.74
2022-08-17T09:10:21.432Z,40.47
2022-08-17T09:11:21.401Z,40.76
2022-08-17T09:12:21.396Z,40.76
2022-08-17T09:13:21.380Z,40.37
2022-08-17T09:14:28.658Z,40.45
2022-08-17T09:15:22.373Z,40.95
2022-08-17T09:16:21.355Z,40.37
2022-08-17T09:17:21.352Z,40.47
2022-08-17T09:18:59.792Z,40.37
2022-08-17T09:19:23.352Z,40.27
2022-08-17T09:20:28.319Z,40.86
2022-08-17T09:21:22.358Z,39.88
2022-08-17T09:22:21.327Z,39.76
2022-08-17T09:23:21.321Z,39.47
2022-08-17T09:24:21.302Z,39.45
2022-08-17T09:25:21.289Z,39.15
2022-08-17T09:26:21.279Z,39.15
2022-08-17T09:27:22.099Z,38.55
2022-08-17T09:28:21.278Z,38.45
2022-08-17T09:29:21.257Z,38.24
2022-08-17T09:30:21.266Z,38.34
2022-08-17T09:31:21.356Z,37.85
2022-08-17T09:32:21.241Z,38.06
2022-08-17T09:33:21.255Z,37.57
2022-08-17T09:34:21.232Z,37.45
2022-08-17T09:35:22.237Z,37.35
2022-08-17T09:36:21.208Z,38.04
2022-08-17T09:37:21.207Z,38.16
2022-08-17T09:38:21.212Z,37.47
2022-08-17T09:39:21.203Z,38.16
2022-08-17T09:40:21.257Z,38.16
2022-08-17T09:41:21.183Z,38.75
2022-08-17T09:42:21.189Z,38.28
2022-08-17T09:43:21.173Z,38.28
2022-08-17T09:44:23.125Z,39.27
2022-08-17T09:45:21.152Z,39.49
2022-08-17T09:46:21.140Z,39.88
2022-08-17T09:47:21.133Z,39.78
2022-08-17T09:48:22.158Z,39.51
2022-08-17T09:49:25.137Z,39.39
2022-08-17T09:51:05.377Z,39.59
2022-08-17T09:51:22.096Z,39.49
2022-08-17T09:52:21.089Z,39.27
2022-08-17T09:53:21.086Z,38.39
2022-08-17T09:54:38.575Z,37.90
2022-08-17T09:55:23.068Z,38.37
2022-08-17T09:56:21.058Z,37.61
2022-08-17T09:57:36.091Z,38.00
2022-08-17T09:58:23.047Z,37.49
2022-08-17T09:59:22.042Z,37.88
2022-08-17T10:00:21.057Z,38.18
2022-08-17T10:01:21.118Z,37.08
2022-08-17T10:02:21.035Z,37.65
2022-08-17T10:03:21.007Z,37.06
2022-08-17T10:04:22.118Z,37.34
2022-08-17T10:05:20.985Z,37.45
2022-08-17T10:06:22.205Z,37.16
2022-08-17T10:07:22.631Z,37.16
2022-08-17T10:08:21.842Z,37.26
2022-08-17T10:09:20.983Z,37.65
2022-08-17T10:10:20.981Z,37.26
2022-08-17T10:11:20.943Z,37.06
2022-08-17T10:12:21.937Z,36.96
2022-08-17T10:13:21.947Z,36.38
2022-08-17T10:14:37.318Z,36.36
2022-08-17T10:15:23.621Z,36.67
2022-08-17T10:16:21.010Z,37.54
2022-08-17T10:17:20.912Z,37.04
2022-08-17T10:18:20.912Z,37.32
2022-08-17T10:19:20.915Z,36.85
2022-08-17T10:20:20.913Z,37.02
2022-08-17T10:21:20.903Z,37.12
2022-08-17T10:22:35.120Z,37.22
2022-08-17T10:23:21.912Z,36.94
2022-08-17T10:24:21.496Z,37.02
2022-08-17T10:25:20.907Z,37.12
2022-08-17T10:26:20.857Z,37.02
2022-08-17T10:27:20.835Z,37.02
2022-08-17T10:28:22.820Z,37.81
2022-08-17T10:29:21.868Z,38.73
2022-08-17T10:30:20.818Z,38.63
2022-08-17T10:31:36.918Z,37.75
2022-08-17T10:32:23.623Z,37.35
2022-08-17T10:33:20.803Z,37.16
2022-08-17T10:34:21.564Z,38.04
2022-08-17T10:35:21.601Z,37.85
2022-08-17T10:36:20.771Z,38.14
2022-08-17T10:37:20.770Z,38.14
2022-08-17T10:38:24.344Z,37.95
2022-08-17T10:39:20.810Z,37.77
2022-08-17T10:40:20.823Z,37.47
2022-08-17T10:41:20.749Z,37.67
2022-08-17T10:42:32.549Z,36.98
2022-08-17T10:43:21.748Z,36.79
2022-08-17T10:44:39.320Z,36.87
2022-08-17T10:45:21.706Z,37.47
2022-08-17T10:46:30.845Z,37.35
2022-08-17T10:47:21.673Z,37.45
2022-08-17T10:48:20.681Z,36.87
2022-08-17T10:49:20.673Z,36.96
2022-08-17T10:50:20.741Z,37.08
2022-08-17T10:51:20.662Z,37.29
2022-08-17T10:52:20.707Z,38.21
2022-08-17T10:53:20.635Z,37.52
2022-08-17T10:54:20.685Z,38.51
2022-08-17T10:55:21.138Z,38.31
2022-08-17T10:56:20.612Z,38.51
2022-08-17T10:57:20.732Z,38.21
2022-08-17T10:58:21.594Z,37.88
2022-08-17T10:59:21.121Z,36.80
2022-08-17T11:00:25.540Z,37.08
2022-08-17T11:01:23.626Z,37.27
2022-08-17T11:02:20.581Z,37.27
2022-08-17T11:03:21.165Z,36.98
2022-08-17T11:04:20.563Z,37.08
2022-08-17T11:05:21.156Z,37.87
2022-08-17T11:06:20.584Z,37.87
2022-08-17T11:07:20.558Z,37.37
2022-08-17T11:08:20.584Z,37.49
2022-08-17T11:09:20.570Z,38.47
2022-08-17T11:10:20.511Z,37.39
2022-08-17T11:12:26.495Z,37.29
2022-08-17T11:13:26.490Z,37.59
2022-08-17T11:14:27.116Z,37.49
2022-08-17T11:15:26.477Z,38.76
2022-08-17T11:16:27.563Z,38.28
2022-08-17T11:17:27.556Z,38.47
2022-08-17T11:18:27.597Z,38.29
2022-08-17T11:19:27.573Z,39.09
2022-08-17T11:20:27.537Z,39.22
2022-08-17T11:21:27.525Z,39.70
2022-08-17T11:22:32.757Z,39.61
2022-08-17T11:23:29.496Z,39.31
2022-08-17T11:24:27.540Z,39.41
2022-08-17T11:25:27.503Z,40.29
2022-08-17T11:26:27.476Z,40.09
2022-08-17T11:27:27.488Z,39.51
2022-08-17T11:28:27.539Z,40.00
2022-08-17T11:29:27.500Z,40.01
2022-08-17T11:30:27.454Z,39.94
2022-08-17T11:31:38.607Z,40.03
2022-08-17T11:32:28.450Z,39.94
2022-08-17T11:33:27.478Z,40.13
2022-08-17T11:34:27.459Z,39.74
2022-08-17T11:35:28.139Z,39.54
2022-08-17T11:36:27.509Z,39.74
2022-08-17T11:37:27.397Z,40.13
2022-08-17T11:38:28.467Z,39.56
2022-08-17T11:39:27.455Z,39.64
2022-08-17T11:40:27.405Z,39.76
2022-08-17T11:41:27.391Z,39.64
2022-08-17T11:42:27.446Z,39.74
2022-08-17T11:43:27.377Z,39.94
2022-08-17T11:44:27.356Z,39.94
2022-08-17T11:45:32.427Z,39.74
2022-08-17T11:46:27.330Z,39.14
2022-08-17T11:47:27.362Z,38.84
2022-08-17T11:48:28.781Z,38.93
2022-08-17T11:49:28.348Z,38.33
2022-08-17T11:50:28.101Z,38.70
2022-08-17T11:51:28.330Z,37.52
2022-08-17T11:52:27.290Z,38.02
2022-08-17T11:53:27.295Z,38.00
2022-08-17T11:54:34.921Z,37.02
2022-08-17T11:55:36.403Z,37.39
2022-08-17T11:56:29.295Z,36.80
2022-08-17T11:57:27.291Z,37.27
2022-08-17T11:58:27.251Z,37.65
2022-08-17T11:59:27.334Z,36.77
2022-08-17T12:00:27.293Z,36.77
2022-08-17T12:01:27.231Z,37.06
2022-08-17T12:02:27.245Z,37.18
2022-08-17T12:03:27.259Z,36.79
2022-08-17T12:04:27.277Z,37.08
2022-08-17T12:05:28.153Z,37.37
2022-08-17T12:06:30.765Z,36.80
2022-08-17T12:07:27.273Z,37.10
2022-08-17T12:08:27.179Z,37.00
2022-08-17T12:09:27.159Z,38.16
2022-08-17T12:10:27.205Z,37.59
2022-08-17T12:12:01.666Z,37.88
2022-08-17T12:12:28.174Z,37.69
2022-08-17T12:13:27.420Z,38.28
2022-08-17T12:14:45.436Z,37.79
2022-08-17T12:15:29.130Z,38.06
2022-08-17T12:16:27.611Z,38.16
2022-08-17T12:17:39.408Z,36.69
2022-08-17T12:18:28.116Z,36.98
2022-08-17T12:19:27.087Z,36.80
2022-08-17T12:20:27.087Z,37.49
2022-08-17T12:21:27.085Z,37.98
2022-08-17T12:22:27.101Z,37.61
2022-08-17T12:23:27.076Z,38.59
2022-08-17T12:24:27.056Z,37.41
2022-08-17T12:25:27.055Z,38.21
2022-08-17T12:26:27.053Z,38.49
2022-08-17T12:28:04.150Z,38.10
2022-08-17T12:28:28.021Z,38.51
2022-08-17T12:29:35.418Z,37.65
2022-08-17T12:30:29.027Z,38.31
2022-08-17T12:31:27.374Z,38.53
2022-08-17T12:32:27.002Z,38.33
2022-08-17T12:33:27.927Z,38.43
2022-08-17T12:34:27.007Z,39.01
2022-08-17T12:35:26.970Z,39.01
2022-08-17T12:36:26.979Z,39.14
2022-08-17T12:37:26.983Z,39.03
2022-08-17T12:38:32.962Z,39.23
2022-08-17T12:39:27.971Z,39.82
2022-08-17T12:40:28.758Z,39.84
2022-08-17T12:42:34.178Z,40.25
2022-08-17T12:43:34.170Z,40.55
2022-08-17T12:44:34.158Z,40.96
2022-08-17T12:45:34.148Z,40.66
2022-08-17T12:46:34.156Z,41.35
2022-08-17T12:47:34.146Z,41.67
2022-08-17T12:48:34.210Z,41.86
2022-08-17T12:49:34.129Z,42.06
2022-08-17T12:50:34.116Z,42.06
2022-08-17T12:51:35.656Z,42.47
2022-08-17T12:52:34.113Z,44.44
2022-08-17T12:53:34.153Z,45.81
2022-08-17T12:54:34.085Z,45.45
2022-08-17T12:55:34.155Z,47.04